Time;durP1;ratioP1;P1;durP2;ratioP2;P2;SDS_P1;SDS_P2;PMS_P1;PMS_P2;Temp;Humidity;BMP_temperature;BMP_pressure;BME280_temperature;BME280_humidity;BME280_pressure;Samples;Min_cycle;Max_cycle;Signal;HPM_P1;HPM_P2
2021/10/04 00:00:34;;;;;;;0.88;0.85;;;16.50;99.90;;;;;;5053431;28;20213;-70
2021/10/04 00:03:01;;;;;;;0.88;0.80;;;16.60;99.90;;;;;;5053230;28;20298;-71
2021/10/04 00:05:28;;;;;;;1.60;0.75;;;16.60;99.90;;;;;;5053205;28;20235;-70
2021/10/04 00:07:55;;;;;;;1.58;0.90;;;16.60;99.90;;;;;;5053467;28;20305;-70
2021/10/04 00:10:22;;;;;;;1.17;0.88;;;16.60;99.90;;;;;;5053175;28;20681;-71
2021/10/04 00:12:49;;;;;;;1.10;1.00;;;16.50;99.90;;;;;;5053004;28;20213;-70
2021/10/04 00:15:20;;;;;;;1.35;0.88;;;16.50;99.90;;;;;;5053230;28;20237;-70
2021/10/04 00:17:48;;;;;;;1.30;1.00;;;16.40;99.90;;;;;;5053317;28;20553;-71
2021/10/04 00:20:16;;;;;;;0.85;0.70;;;16.40;99.90;;;;;;5053277;28;20213;-70
2021/10/04 00:22:44;;;;;;;0.60;0.60;;;16.30;99.90;;;;;;5053024;28;20204;-71
2021/10/04 00:25:12;;;;;;;0.90;0.90;;;16.40;99.90;;;;;;5052815;28;20228;-71
2021/10/04 00:27:39;;;;;;;1.38;0.95;;;16.40;99.90;;;;;;5053250;28;20297;-71
2021/10/04 00:30:07;;;;;;;0.80;0.80;;;16.30;99.90;;;;;;5053138;28;20211;-70
2021/10/04 00:32:37;;;;;;;1.13;1.02;;;16.10;99.90;;;;;;5052734;28;20210;-70
2021/10/04 00:35:04;;;;;;;1.00;1.00;;;16.00;99.90;;;;;;5053239;28;20198;-70
2021/10/04 00:37:32;;;;;;;0.90;0.70;;;15.90;99.90;;;;;;5053137;28;20297;-70
2021/10/04 00:39:58;;;;;;;1.20;1.20;;;15.80;99.90;;;;;;5053037;28;20202;-70
2021/10/04 00:42:26;;;;;;;1.55;0.98;;;15.70;99.90;;;;;;5052607;28;20306;-70
2021/10/04 00:44:53;;;;;;;0.60;0.60;;;15.70;99.90;;;;;;5052884;28;20314;-70
2021/10/04 00:47:20;;;;;;;1.10;0.68;;;15.50;99.90;;;;;;5052991;28;20312;-70
2021/10/04 00:49:49;;;;;;;0.77;0.77;;;15.60;99.90;;;;;;5052974;28;20211;-70
2021/10/04 00:52:15;;;;;;;1.10;0.70;;;15.60;99.90;;;;;;5052821;28;20293;-70
2021/10/04 00:54:42;;;;;;;0.85;0.85;;;15.50;99.90;;;;;;5052926;28;20571;-70
2021/10/04 00:57:09;;;;;;;1.13;1.02;;;15.50;99.90;;;;;;5052918;28;20561;-70
2021/10/04 00:59:37;;;;;;;1.70;0.95;;;15.50;99.90;;;;;;5052796;28;20213;-70
2021/10/04 01:02:04;;;;;;;0.80;0.80;;;15.50;99.90;;;;;;5052723;28;20202;-70
2021/10/04 01:04:31;;;;;;;0.70;0.70;;;15.60;99.90;;;;;;5056182;28;20706;-70
2021/10/04 01:07:00;;;;;;;0.80;0.80;;;15.70;99.90;;;;;;5056104;28;20228;-70
2021/10/04 01:09:28;;;;;;;1.05;0.88;;;15.70;99.90;;;;;;5056279;28;20205;-70
2021/10/04 01:11:57;;;;;;;0.90;0.68;;;15.60;99.90;;;;;;5056130;28;20209;-70
2021/10/04 01:14:24;;;;;;;1.27;1.10;;;15.50;99.90;;;;;;5055957;28;20685;-70
2021/10/04 01:16:51;;;;;;;0.80;0.65;;;15.30;99.90;;;;;;5056212;28;20285;-70
2021/10/04 01:19:18;;;;;;;0.80;0.80;;;15.40;99.90;;;;;;5056151;28;20298;-70
2021/10/04 01:21:47;;;;;;;0.73;0.60;;;15.50;99.90;;;;;;5055936;28;20630;-71
2021/10/04 01:24:16;;;;;;;0.80;0.80;;;15.60;99.90;;;;;;5056001;28;20572;-71
2021/10/04 01:26:44;;;;;;;0.75;0.70;;;15.70;99.90;;;;;;5055780;28;20223;-70
2021/10/04 01:29:11;;;;;;;1.08;0.95;;;15.80;99.90;;;;;;5055966;28;20543;-70
2021/10/04 01:31:38;;;;;;;1.20;1.08;;;15.90;99.90;;;;;;5055785;28;20203;-70
2021/10/04 01:34:05;;;;;;;1.20;0.80;;;15.80;99.90;;;;;;5055746;28;20571;-70
2021/10/04 01:36:33;;;;;;;0.70;0.70;;;15.80;99.90;;;;;;5055763;28;20253;-70
2021/10/04 01:39:01;;;;;;;0.80;0.60;;;15.70;99.90;;;;;;5055486;28;20212;-70
2021/10/04 01:41:28;;;;;;;1.38;0.70;;;15.60;99.90;;;;;;5055351;28;20214;-70
2021/10/04 01:43:55;;;;;;;0.75;0.60;;;15.60;99.90;;;;;;5055749;28;20203;-70
2021/10/04 01:46:22;;;;;;;0.70;0.70;;;15.60;99.90;;;;;;5055838;28;20233;-70
2021/10/04 01:48:49;;;;;;;0.63;0.63;;;15.60;99.90;;;;;;5055783;28;20206;-70
2021/10/04 01:51:16;;;;;;;1.08;0.95;;;15.60;99.90;;;;;;5055516;28;20303;-69
2021/10/04 01:53:43;;;;;;;0.50;0.50;;;15.60;99.90;;;;;;5055406;28;20667;-70
2021/10/04 01:56:11;;;;;;;1.00;0.77;;;15.50;99.90;;;;;;5055486;28;20222;-70
2021/10/04 01:58:38;;;;;;;0.80;0.70;;;15.40;99.90;;;;;;5055682;28;20300;-70
2021/10/04 02:01:06;;;;;;;0.93;0.70;;;15.40;99.90;;;;;;5055199;28;20216;-71
2021/10/04 02:03:33;;;;;;;0.50;0.50;;;15.40;99.90;;;;;;5055361;28;20323;-70
2021/10/04 02:06:00;;;;;;;0.80;0.68;;;15.30;99.90;;;;;;5054969;28;20231;-70
2021/10/04 02:08:27;;;;;;;0.70;0.70;;;15.30;99.90;;;;;;5055280;28;20201;-70
2021/10/04 02:10:54;;;;;;;0.90;0.75;;;15.40;99.90;;;;;;5054977;28;20221;-70
2021/10/04 02:13:24;;;;;;;0.70;0.70;;;15.40;99.90;;;;;;5054557;28;20636;-70
2021/10/04 02:15:51;;;;;;;0.70;0.68;;;15.50;99.90;;;;;;5054879;28;20230;-70
2021/10/04 02:18:18;;;;;;;0.50;0.50;;;15.50;99.90;;;;;;5055075;28;20300;-70
2021/10/04 02:20:47;;;;;;;0.80;0.68;;;15.40;99.90;;;;;;5054953;28;20208;-70
2021/10/04 02:23:15;;;;;;;0.60;0.60;;;15.40;99.90;;;;;;5054820;28;20209;-70
2021/10/04 02:25:45;;;;;;;0.60;0.60;;;15.40;99.90;;;;;;5054720;28;20229;-70
2021/10/04 02:28:13;;;;;;;1.25;0.82;;;15.30;99.90;;;;;;5055210;28;20233;-70
2021/10/04 02:30:41;;;;;;;1.08;0.73;;;15.20;99.90;;;;;;5054718;28;20212;-70
2021/10/04 02:33:09;;;;;;;0.75;0.75;;;15.30;99.90;;;;;;5054597;28;20297;-70
2021/10/04 02:35:37;;;;;;;0.60;0.60;;;15.20;99.90;;;;;;5054822;28;20222;-70
2021/10/04 02:38:05;;;;;;;0.75;0.68;;;15.30;99.90;;;;;;5054673;28;20309;-71
2021/10/04 02:40:32;;;;;;;0.82;0.82;;;15.30;99.90;;;;;;5054762;28;20209;-70
2021/10/04 02:42:59;;;;;;;0.60;0.60;;;15.40;99.90;;;;;;5054475;28;20210;-71
2021/10/04 02:45:27;;;;;;;0.80;0.80;;;15.40;99.90;;;;;;5054104;28;20724;-70
2021/10/04 02:47:58;;;;;;;0.90;0.90;;;15.40;99.90;;;;;;5054466;28;20205;-70
2021/10/04 02:50:26;;;;;;;0.80;0.60;;;15.40;99.90;;;;;;5054702;28;20217;-70
2021/10/04 02:52:53;;;;;;;0.60;0.60;;;15.40;99.90;;;;;;5054271;28;20301;-70
2021/10/04 02:55:20;;;;;;;0.90;0.65;;;15.40;99.90;;;;;;5054156;28;20731;-70
2021/10/04 02:57:47;;;;;;;1.70;0.80;;;15.30;99.90;;;;;;5054362;28;20205;-70
2021/10/04 03:00:16;;;;;;;1.45;0.90;;;15.20;99.90;;;;;;5054167;28;20708;-70
2021/10/04 03:02:43;;;;;;;1.00;0.70;;;15.30;99.90;;;;;;5053799;28;20213;-70
2021/10/04 03:05:11;;;;;;;0.93;0.80;;;15.20;99.90;;;;;;5054239;28;20231;-70
2021/10/04 03:07:39;;;;;;;0.70;0.70;;;15.10;99.90;;;;;;5054177;28;20205;-70
2021/10/04 03:10:06;;;;;;;0.80;0.70;;;15.10;99.90;;;;;;5054120;28;20292;-70
2021/10/04 03:12:33;;;;;;;0.60;0.60;;;15.20;99.90;;;;;;5053955;28;20232;-70
2021/10/04 03:15:00;;;;;;;0.60;0.60;;;15.20;99.90;;;;;;5054096;28;20210;-70
2021/10/04 03:17:27;;;;;;;0.68;0.60;;;15.20;99.90;;;;;;5054043;28;20205;-70
2021/10/04 03:19:54;;;;;;;1.13;0.60;;;15.20;99.90;;;;;;5053920;28;20297;-70
2021/10/04 03:22:23;;;;;;;0.77;0.77;;;15.20;99.90;;;;;;5053730;28;20206;-70
2021/10/04 03:24:49;;;;;;;0.60;0.60;;;15.20;99.90;;;;;;5053179;28;20678;-70
2021/10/04 03:27:16;;;;;;;0.80;0.80;;;15.20;99.90;;;;;;5053659;28;20229;-70
2021/10/04 03:29:43;;;;;;;1.05;0.77;;;15.20;99.90;;;;;;5053747;28;20301;-70
2021/10/04 03:32:10;;;;;;;0.60;0.60;;;15.20;99.90;;;;;;5053356;28;20213;-70
2021/10/04 03:34:37;;;;;;;0.98;0.88;;;15.30;99.90;;;;;;5053727;28;20202;-70
2021/10/04 03:37:04;;;;;;;0.70;0.60;;;15.20;99.90;;;;;;5053658;28;20316;-70
2021/10/04 03:39:32;;;;;;;0.57;0.57;;;15.20;99.90;;;;;;5053572;28;20211;-70
2021/10/04 03:41:59;;;;;;;0.60;0.50;;;15.20;99.90;;;;;;5053258;28;20210;-70
2021/10/04 03:44:26;;;;;;;0.85;0.70;;;15.10;99.90;;;;;;5053556;28;20208;-70
2021/10/04 03:46:53;;;;;;;0.73;0.50;;;14.90;99.90;;;;;;5053484;28;20228;-70
2021/10/04 03:49:20;;;;;;;0.73;0.70;;;14.80;99.90;;;;;;5053548;28;20627;-70
2021/10/04 03:51:47;;;;;;;0.77;0.70;;;14.70;99.90;;;;;;5053276;28;20290;-69
2021/10/04 03:54:14;;;;;;;0.70;0.70;;;14.50;99.90;;;;;;5053649;28;20294;-69
2021/10/04 03:56:42;;;;;;;0.70;0.70;;;14.50;99.90;;;;;;5053386;28;20259;-70
2021/10/04 03:59:09;;;;;;;0.70;0.70;;;14.40;99.90;;;;;;5053453;28;20576;-70
2021/10/04 04:01:36;;;;;;;0.88;0.70;;;14.40;99.90;;;;;;5053017;28;20768;-70
2021/10/04 04:04:03;;;;;;;1.55;1.10;;;14.30;99.90;;;;;;5053654;28;20213;-70
2021/10/04 04:06:29;;;;;;;1.38;1.20;;;14.20;99.90;;;;;;5053394;28;20712;-70
2021/10/04 04:08:56;;;;;;;0.68;0.68;;;14.10;99.90;;;;;;5053074;28;20749;-69
2021/10/04 04:11:24;;;;;;;0.75;0.70;;;14.10;99.90;;;;;;5053166;28;20667;-70
2021/10/04 04:13:52;;;;;;;1.05;0.70;;;14.10;99.90;;;;;;5053093;28;20204;-70
2021/10/04 04:16:19;;;;;;;1.27;0.70;;;14.10;99.90;;;;;;5053270;28;20223;-70
2021/10/04 04:18:46;;;;;;;0.73;0.60;;;14.10;99.90;;;;;;5053275;28;20205;-70
2021/10/04 04:21:13;;;;;;;1.70;0.68;;;14.10;99.90;;;;;;5053100;28;20206;-70
2021/10/04 04:23:40;;;;;;;0.40;0.40;;;14.30;99.90;;;;;;5053256;28;20205;-70
2021/10/04 04:26:07;;;;;;;0.50;0.50;;;14.30;99.90;;;;;;5052837;28;20689;-70
2021/10/04 04:28:34;;;;;;;0.63;0.63;;;14.30;99.90;;;;;;5053027;28;20301;-70
2021/10/04 04:31:02;;;;;;;0.60;0.60;;;14.40;99.90;;;;;;5052876;28;20205;-71
2021/10/04 04:33:29;;;;;;;0.45;0.45;;;14.40;99.90;;;;;;5053420;28;20205;-70
2021/10/04 04:35:56;;;;;;;0.68;0.68;;;14.40;99.90;;;;;;5053026;28;20314;-70
2021/10/04 04:38:23;;;;;;;1.35;0.68;;;14.40;99.90;;;;;;5056488;28;20685;-70
2021/10/04 04:40:50;;;;;;;0.75;0.60;;;14.50;99.90;;;;;;5056921;28;20203;-70
2021/10/04 04:43:17;;;;;;;0.82;0.60;;;14.50;99.90;;;;;;5056706;28;20200;-70
2021/10/04 04:45:44;;;;;;;0.70;0.63;;;14.50;99.90;;;;;;5056603;28;20255;-70
2021/10/04 04:48:12;;;;;;;0.80;0.80;;;14.40;99.90;;;;;;5056567;28;20235;-70
2021/10/04 04:50:39;;;;;;;1.30;1.20;;;14.30;99.90;;;;;;5056756;28;20205;-69
2021/10/04 04:53:06;;;;;;;1.35;1.20;;;14.30;99.90;;;;;;5056224;28;20745;-70
2021/10/04 04:55:32;;;;;;;4.20;1.90;;;14.40;99.90;;;;;;5056784;28;20221;-70
2021/10/04 04:57:59;;;;;;;1.92;1.75;;;14.50;99.90;;;;;;5056696;28;20211;-70
2021/10/04 05:00:26;;;;;;;2.10;1.90;;;14.50;99.90;;;;;;5056397;28;20307;-70
2021/10/04 05:02:53;;;;;;;1.90;1.70;;;14.40;99.90;;;;;;5056377;28;20204;-70
2021/10/04 05:05:21;;;;;;;2.80;1.80;;;14.40;99.90;;;;;;5056363;28;20228;-70
2021/10/04 05:07:48;;;;;;;3.55;2.22;;;14.40;99.90;;;;;;5056386;28;20316;-70
2021/10/04 05:10:15;;;;;;;1.95;1.60;;;14.40;99.90;;;;;;5056497;28;20209;-70
2021/10/04 05:12:42;;;;;;;2.97;1.85;;;14.40;99.90;;;;;;5056270;28;20204;-70
2021/10/04 05:15:10;;;;;;;2.40;1.60;;;14.30;99.90;;;;;;5056212;28;20209;-71
2021/10/04 05:17:37;;;;;;;3.05;1.83;;;14.40;99.90;;;;;;5056500;28;20207;-70
2021/10/04 05:20:04;;;;;;;1.45;1.35;;;14.40;99.90;;;;;;5056081;28;20210;-70
2021/10/04 05:22:35;;;;;;;2.35;1.70;;;14.30;99.90;;;;;;5055968;28;20204;-70
2021/10/04 05:25:02;;;;;;;1.70;1.50;;;14.20;99.90;;;;;;5055832;28;20298;-70
2021/10/04 05:27:29;;;;;;;1.92;1.48;;;14.10;99.90;;;;;;5055691;28;20314;-70
2021/10/04 05:29:55;;;;;;;1.15;1.00;;;14.10;99.90;;;;;;5055966;28;20298;-70
2021/10/04 05:32:22;;;;;;;0.80;0.80;;;14.20;99.90;;;;;;5055488;28;20663;-70
2021/10/04 05:34:49;;;;;;;0.73;0.70;;;14.40;99.90;;;;;;5056026;28;20210;-71
2021/10/04 05:37:16;;;;;;;0.98;0.88;;;14.30;99.90;;;;;;5055630;28;20734;-70
2021/10/04 05:39:44;;;;;;;2.40;1.50;;;14.40;99.90;;;;;;5055987;28;20212;-71
2021/10/04 05:42:11;;;;;;;2.50;1.50;;;14.40;99.90;;;;;;5055558;28;20205;-71
2021/10/04 05:44:37;;;;;;;1.35;1.25;;;14.50;99.90;;;;;;5055732;28;20300;-71
2021/10/04 05:47:04;;;;;;;1.00;0.80;;;14.50;99.90;;;;;;5055652;28;20319;-71
2021/10/04 05:49:31;;;;;;;1.20;1.10;;;14.50;99.90;;;;;;5054822;28;20620;-70
2021/10/04 05:51:58;;;;;;;1.08;1.05;;;14.60;99.90;;;;;;5055233;28;20241;-70
2021/10/04 05:54:25;;;;;;;0.88;0.80;;;14.60;99.90;;;;;;5055528;28;20208;-70
2021/10/04 05:56:53;;;;;;;1.00;1.00;;;14.70;99.90;;;;;;5055160;28;20278;-70
2021/10/04 05:59:20;;;;;;;1.60;1.50;;;14.60;99.90;;;;;;5055356;28;20211;-70
2021/10/04 06:01:47;;;;;;;1.55;1.40;;;14.70;99.90;;;;;;5054929;28;20273;-70
2021/10/04 06:04:13;;;;;;;1.10;1.00;;;14.70;99.90;;;;;;5055338;28;20660;-70
2021/10/04 06:06:40;;;;;;;1.35;0.93;;;14.70;99.90;;;;;;5055240;28;20319;-70
2021/10/04 06:09:07;;;;;;;1.23;0.80;;;14.70;99.90;;;;;;5055120;28;20726;-70
2021/10/04 06:11:34;;;;;;;0.63;0.63;;;14.70;99.90;;;;;;5055021;28;20212;-70
2021/10/04 06:14:02;;;;;;;0.70;0.65;;;14.80;99.90;;;;;;5055079;28;20208;-70
2021/10/04 06:16:29;;;;;;;0.70;0.70;;;14.80;99.90;;;;;;5055102;28;20316;-70
2021/10/04 06:18:56;;;;;;;0.52;0.52;;;14.80;99.90;;;;;;5055084;28;20240;-70
2021/10/04 06:21:23;;;;;;;0.70;0.70;;;14.60;99.90;;;;;;5054650;28;20681;-70
2021/10/04 06:23:49;;;;;;;0.93;0.77;;;14.50;99.90;;;;;;5055023;28;20204;-70
2021/10/04 06:26:16;;;;;;;0.80;0.80;;;14.40;99.90;;;;;;5054525;28;20322;-70
2021/10/04 06:28:43;;;;;;;0.70;0.70;;;14.30;99.90;;;;;;5054863;28;20204;-70
2021/10/04 06:31:12;;;;;;;0.70;0.70;;;14.20;99.90;;;;;;5054642;28;20209;-70
2021/10/04 06:33:39;;;;;;;0.85;0.85;;;14.20;99.90;;;;;;5054789;28;20599;-70
2021/10/04 06:36:05;;;;;;;0.80;0.80;;;14.20;99.90;;;;;;5054826;28;20224;-70
2021/10/04 06:38:32;;;;;;;0.90;0.90;;;14.20;99.90;;;;;;5054744;28;20200;-70
2021/10/04 06:40:59;;;;;;;1.30;0.80;;;14.20;99.90;;;;;;5054639;28;20615;-70
2021/10/04 06:43:26;;;;;;;1.00;0.95;;;14.10;99.90;;;;;;5054533;28;20214;-70
2021/10/04 06:45:53;;;;;;;1.00;1.00;;;14.10;99.90;;;;;;5054808;28;20224;-70
2021/10/04 06:48:21;;;;;;;1.67;1.00;;;14.00;99.90;;;;;;5054409;28;20229;-70
2021/10/04 06:50:48;;;;;;;0.80;0.80;;;14.10;99.90;;;;;;5054445;28;20212;-70
2021/10/04 06:53:15;;;;;;;0.93;0.70;;;14.00;99.90;;;;;;5054260;28;20211;-70
2021/10/04 06:55:41;;;;;;;0.95;0.88;;;14.00;99.90;;;;;;5054490;28;20310;-69
2021/10/04 06:58:08;;;;;;;1.20;1.10;;;14.00;99.90;;;;;;5054324;28;20295;-70
2021/10/04 07:00:35;;;;;;;1.25;1.13;;;14.10;99.90;;;;;;5054488;28;20207;-70
2021/10/04 07:03:02;;;;;;;1.75;1.60;;;14.20;99.90;;;;;;5053827;28;20219;-69
2021/10/04 07:05:30;;;;;;;2.03;1.60;;;14.10;99.90;;;;;;5054127;28;20322;-70
2021/10/04 07:07:57;;;;;;;2.97;1.90;;;14.10;99.90;;;;;;5053827;28;20736;-70
2021/10/04 07:10:24;;;;;;;2.20;2.00;;;14.10;99.90;;;;;;5054046;28;20199;-70
2021/10/04 07:12:51;;;;;;;3.63;1.60;;;14.10;99.90;;;;;;5054176;28;20210;-69
2021/10/04 07:15:19;;;;;;;1.10;1.00;;;14.10;99.90;;;;;;5053935;28;20204;-70
2021/10/04 07:17:46;;;;;;;2.47;1.63;;;14.10;99.90;;;;;;5053737;28;20206;-70
2021/10/04 07:20:13;;;;;;;2.90;1.33;;;14.10;99.90;;;;;;5053920;28;20302;-70
2021/10/04 07:22:42;;;;;;;1.52;1.30;;;14.10;99.90;;;;;;5053746;28;20291;-69
2021/10/04 07:25:11;;;;;;;3.10;2.30;;;14.00;99.90;;;;;;5053552;28;20299;-70
2021/10/04 07:27:38;;;;;;;2.40;2.20;;;13.90;99.90;;;;;;5053796;28;20231;-70
2021/10/04 07:30:08;;;;;;;2.92;2.00;;;13.80;99.90;;;;;;5053803;28;20651;-70
2021/10/04 07:32:35;;;;;;;2.60;2.33;;;13.70;99.90;;;;;;5053577;28;20206;-70
2021/10/04 07:35:02;;;;;;;3.38;2.15;;;13.60;99.90;;;;;;5053660;28;20632;-70
2021/10/04 07:37:29;;;;;;;3.63;2.75;;;13.70;99.90;;;;;;5053349;28;20199;-70
2021/10/04 07:39:57;;;;;;;3.92;2.97;;;13.70;99.90;;;;;;5054304;28;20205;-69
2021/10/04 07:42:24;;;;;;;3.75;2.60;;;13.80;99.90;;;;;;5053455;28;20199;-70
2021/10/04 07:44:51;;;;;;;4.60;2.70;;;13.80;99.90;;;;;;5053433;28;20658;-70
2021/10/04 07:47:18;;;;;;;4.95;3.75;;;13.70;99.90;;;;;;5053463;28;20238;-70
2021/10/04 07:49:45;;;;;;;5.32;3.53;;;13.70;99.90;;;;;;5053558;28;20206;-70
2021/10/04 07:52:12;;;;;;;3.75;3.25;;;13.70;99.90;;;;;;5053057;28;20294;-70
2021/10/04 07:54:39;;;;;;;4.72;3.58;;;13.80;99.90;;;;;;5053737;28;20199;-70
2021/10/04 07:57:12;;;;;;;7.57;4.13;;;13.90;99.90;;;;;;5053464;28;20310;-70
2021/10/04 07:59:40;;;;;;;5.85;3.80;;;14.00;99.90;;;;;;5053726;28;20213;-70
2021/10/04 08:02:07;;;;;;;7.00;3.45;;;13.70;99.90;;;;;;5053167;28;20199;-70
2021/10/04 08:04:34;;;;;;;5.20;3.35;;;13.60;99.90;;;;;;5053278;28;20210;-70
2021/10/04 08:07:01;;;;;;;5.07;3.05;;;13.70;99.90;;;;;;5053312;28;20314;-70
2021/10/04 08:09:28;;;;;;;3.13;2.30;;;13.70;99.90;;;;;;5053360;28;20299;-70
2021/10/04 08:11:54;;;;;;;3.42;2.33;;;13.80;99.90;;;;;;5054512;28;20206;-70
2021/10/04 08:14:23;;;;;;;3.90;3.08;;;13.90;99.90;;;;;;5057307;28;20235;-70
2021/10/04 08:16:50;;;;;;;7.20;3.00;;;14.00;99.90;;;;;;5057292;28;20226;-70
2021/10/04 08:19:16;;;;;;;2.28;2.00;;;14.10;99.90;;;;;;5057072;28;20220;-70
2021/10/04 08:21:43;;;;;;;2.97;2.45;;;14.10;99.90;;;;;;5056957;28;20662;-70
2021/10/04 08:24:10;;;;;;;2.88;2.40;;;14.30;99.90;;;;;;5057047;28;20264;-70
2021/10/04 08:26:37;;;;;;;2.25;2.05;;;14.30;99.90;;;;;;5057127;28;20255;-70
2021/10/04 08:29:04;;;;;;;1.90;1.73;;;14.40;99.90;;;;;;5057154;28;20208;-70
2021/10/04 08:31:32;;;;;;;2.20;2.00;;;14.50;99.90;;;;;;5056816;28;20210;-70
2021/10/04 08:34:01;;;;;;;4.40;2.35;;;14.40;99.90;;;;;;5057064;28;20205;-70
2021/10/04 08:36:28;;;;;;;11.80;8.05;;;14.50;99.90;;;;;;5056964;28;20230;-70
2021/10/04 08:38:56;;;;;;;2.70;2.13;;;14.60;99.90;;;;;;5056793;28;20292;-70
2021/10/04 08:41:24;;;;;;;3.53;2.60;;;14.60;99.90;;;;;;5056754;28;20208;-70
2021/10/04 08:43:53;;;;;;;4.13;2.75;;;14.70;99.90;;;;;;5056864;28;20208;-70
2021/10/04 08:46:21;;;;;;;3.83;2.53;;;14.50;99.90;;;;;;5056522;28;20310;-69
2021/10/04 08:48:50;;;;;;;2.75;2.55;;;14.20;99.90;;;;;;5056742;28;20237;-70
2021/10/04 08:51:17;;;;;;;5.60;2.92;;;14.10;99.90;;;;;;5056571;28;20236;-70
2021/10/04 08:53:46;;;;;;;3.75;2.72;;;14.10;99.90;;;;;;5056548;28;20689;-70
2021/10/04 08:56:13;;;;;;;2.92;2.20;;;14.30;99.90;;;;;;5056485;28;20319;-70
2021/10/04 08:58:40;;;;;;;2.80;2.42;;;14.40;99.90;;;;;;5056623;28;20204;-70
2021/10/04 09:01:08;;;;;;;2.60;2.40;;;14.30;99.90;;;;;;5056370;28;20200;-70
2021/10/04 09:03:46;;;;;;;3.88;2.20;;;14.10;99.90;;;;;;5056505;28;20208;-70
2021/10/04 09:06:31;;;;;;;4.78;2.50;;;14.00;99.90;;;;;;5056257;28;20234;-70
2021/10/04 09:09:00;;;;;;;2.97;2.67;;;14.00;99.90;;;;;;5056738;28;20217;-69
2021/10/04 09:11:35;;;;;;;3.30;2.58;;;14.00;99.90;;;;;;5056153;28;20208;-70
2021/10/04 09:14:08;;;;;;;2.90;2.20;;;14.00;99.90;;;;;;5056150;28;20658;-70
2021/10/04 09:17:11;;;;;;;3.50;2.63;;;14.00;99.90;;;;;;5056274;28;20223;-70
2021/10/04 09:19:39;;;;;;;2.95;2.38;;;14.10;99.90;;;;;;4995052;28;20212;-70
2021/10/04 09:22:11;;;;;;;4.35;2.70;;;14.20;99.90;;;;;;4994695;28;20203;-69
2021/10/04 09:24:40;;;;;;;4.55;3.22;;;14.00;99.90;;;;;;5024088;28;20302;-70
2021/10/04 09:27:26;;;;;;;3.00;2.53;;;14.00;99.90;;;;;;5055973;28;20226;-70
2021/10/04 09:29:54;;;;;;;2.53;2.05;;;14.00;99.90;;;;;;5056015;28;20204;-70
2021/10/04 09:32:26;;;;;;;2.78;2.20;;;13.90;99.90;;;;;;5055761;28;20211;-70
2021/10/04 09:35:21;;;;;;;3.58;2.63;;;13.90;99.90;;;;;;5055925;28;20199;-70
2021/10/04 09:37:51;;;;;;;3.15;2.78;;;13.90;99.90;;;;;;5055945;28;20592;-70
2021/10/04 09:40:35;;;;;;;3.15;2.75;;;14.00;99.90;;;;;;5055625;28;20213;-70
2021/10/04 09:43:04;;;;;;;2.92;2.67;;;14.00;99.90;;;;;;5055636;28;20209;-70
2021/10/04 09:45:33;;;;;;;2.70;2.03;;;14.00;99.90;;;;;;5055594;28;20228;-70
2021/10/04 09:48:09;;;;;;;3.25;2.38;;;14.00;99.90;;;;;;5055674;28;20227;-70
2021/10/04 09:50:36;;;;;;;4.60;2.45;;;14.20;99.90;;;;;;5055676;28;20276;-70
2021/10/04 09:53:05;;;;;;;3.08;2.20;;;14.40;99.90;;;;;;5055227;28;20204;-70
2021/10/04 09:55:34;;;;;;;2.85;2.50;;;14.50;99.90;;;;;;5055204;28;20232;-70
2021/10/04 09:58:14;;;;;;;2.30;2.05;;;14.50;99.90;;;;;;5055277;28;20197;-70
2021/10/04 10:00:45;;;;;;;2.13;1.75;;;14.60;99.90;;;;;;5055533;28;20215;-70
2021/10/04 10:03:14;;;;;;;2.15;1.80;;;14.70;99.90;;;;;;5055238;28;20295;-70
2021/10/04 10:05:43;;;;;;;1.88;1.55;;;14.70;99.90;;;;;;5055540;28;20235;-70
2021/10/04 10:08:12;;;;;;;2.28;2.08;;;14.60;99.90;;;;;;5055229;28;20265;-70
2021/10/04 10:10:40;;;;;;;2.05;1.77;;;14.60;99.90;;;;;;5055269;28;20290;-70
2021/10/04 10:13:08;;;;;;;2.28;2.00;;;14.50;99.90;;;;;;5054944;28;20685;-69
2021/10/04 10:15:36;;;;;;;4.00;1.73;;;14.30;99.90;;;;;;5055036;28;20315;-70
2021/10/04 10:18:10;;;;;;;2.10;1.60;;;14.50;99.90;;;;;;5055130;28;20196;-70
2021/10/04 10:20:38;;;;;;;1.80;1.60;;;14.40;99.90;;;;;;5055129;28;20291;-70
2021/10/04 10:23:05;;;;;;;1.65;1.55;;;14.30;99.90;;;;;;5054704;28;20299;-70
2021/10/04 10:25:38;;;;;;;2.05;1.60;;;14.30;99.90;;;;;;5054625;28;20322;-70
2021/10/04 10:28:07;;;;;;;2.40;1.70;;;14.40;99.90;;;;;;5054955;28;20211;-70
2021/10/04 10:30:34;;;;;;;3.00;2.10;;;14.60;99.90;;;;;;5054861;28;20655;-70
2021/10/04 10:33:01;;;;;;;2.38;1.83;;;14.80;99.90;;;;;;5054652;28;20208;-70
2021/10/04 10:35:49;;;;;;;2.00;1.70;;;14.80;99.90;;;;;;5054652;28;20316;-70
2021/10/04 10:38:38;;;;;;;1.20;1.10;;;14.90;99.90;;;;;;5054766;28;20201;-70
2021/10/04 10:41:17;;;;;;;2.22;2.00;;;14.90;99.90;;;;;;5054189;28;20204;-70
2021/10/04 10:44:03;;;;;;;1.80;1.27;;;15.00;99.90;;;;;;5054609;28;20296;-70
2021/10/04 10:46:54;;;;;;;0.75;0.75;;;15.10;99.90;;;;;;5054517;28;20232;-70
2021/10/04 10:49:53;;;;;;;0.50;0.50;;;15.10;99.90;;;;;;5054441;28;20229;-70
2021/10/04 10:52:23;;;;;;;0.93;0.93;;;15.30;99.90;;;;;;5054110;28;20216;-70
2021/10/04 10:54:52;;;;;;;0.93;0.88;;;15.40;99.90;;;;;;5054402;28;20211;-70
2021/10/04 10:57:20;;;;;;;1.77;1.05;;;15.40;99.90;;;;;;5054513;28;20362;-70
2021/10/04 11:00:07;;;;;;;0.82;0.82;;;15.50;99.90;;;;;;5054346;28;20232;-70
2021/10/04 11:02:52;;;;;;;1.25;1.00;;;15.40;99.90;;;;;;5053893;28;20571;-70
2021/10/04 11:05:54;;;;;;;1.58;0.82;;;15.50;99.90;;;;;;5054167;28;20305;-70
2021/10/04 11:08:24;;;;;;;1.98;1.30;;;15.50;99.90;;;;;;5021831;28;20761;-70
2021/10/04 11:11:10;;;;;;;1.52;1.10;;;15.50;99.90;;;;;;5054134;28;20584;-70
2021/10/04 11:13:40;;;;;;;2.22;1.10;;;15.70;99.90;;;;;;5054142;28;20206;-70
2021/10/04 11:16:36;;;;;;;0.98;0.98;;;15.80;99.90;;;;;;5053965;28;20649;-70
2021/10/04 11:19:05;;;;;;;1.88;1.30;;;15.90;99.90;;;;;;5024573;28;20210;-70
2021/10/04 11:21:33;;;;;;;2.20;1.95;;;15.80;99.90;;;;;;5053557;28;20746;-70
2021/10/04 11:24:03;;;;;;;2.92;1.85;;;15.80;99.90;;;;;;5054117;28;20211;-70
2021/10/04 11:26:33;;;;;;;2.15;1.95;;;15.90;99.90;;;;;;5053527;28;20238;-70
2021/10/04 11:29:02;;;;;;;2.25;1.60;;;15.90;99.90;;;;;;5053521;28;20247;-70
2021/10/04 11:31:32;;;;;;;1.55;1.30;;;16.10;99.90;;;;;;5053381;28;20219;-70
2021/10/04 11:34:01;;;;;;;2.80;1.35;;;16.20;99.90;;;;;;5053791;28;20203;-70
2021/10/04 11:36:30;;;;;;;1.50;1.40;;;16.20;99.90;;;;;;5053642;28;20232;-70
2021/10/04 11:38:59;;;;;;;2.10;1.60;;;16.20;99.90;;;;;;5053413;28;20293;-70
2021/10/04 11:41:27;;;;;;;1.52;1.42;;;16.30;99.90;;;;;;5053446;28;20203;-70
2021/10/04 11:43:56;;;;;;;1.95;1.40;;;16.30;99.90;;;;;;5053712;28;20568;-70
2021/10/04 11:46:26;;;;;;;1.40;1.15;;;16.40;99.90;;;;;;5052945;28;20314;-70
2021/10/04 11:49:05;;;;;;;1.88;1.63;;;16.50;99.90;;;;;;5053507;28;20226;-70
2021/10/04 11:51:34;;;;;;;1.70;1.60;;;16.50;99.90;;;;;;5053357;28;20214;-70
2021/10/04 11:54:02;;;;;;;1.30;1.20;;;16.40;99.90;;;;;;5053552;28;20203;-70
2021/10/04 11:56:29;;;;;;;7.53;1.30;;;16.40;99.90;;;;;;5053513;28;20288;-70
2021/10/04 11:58:58;;;;;;;1.30;1.20;;;16.30;99.90;;;;;;5053502;28;20209;-70
2021/10/04 12:01:31;;;;;;;3.90;1.20;;;16.30;99.90;;;;;;5053305;28;20237;-69
2021/10/04 12:04:00;;;;;;;1.30;1.20;;;16.30;99.90;;;;;;5053474;28;20210;-71
2021/10/04 12:06:29;;;;;;;1.27;1.17;;;16.30;99.90;;;;;;5053215;28;20253;-70
2021/10/04 12:08:56;;;;;;;1.20;1.10;;;16.40;99.90;;;;;;5053355;28;20281;-70
2021/10/04 12:11:23;;;;;;;2.00;1.30;;;16.40;99.90;;;;;;5053184;28;20206;-70
2021/10/04 12:13:50;;;;;;;1.52;1.00;;;16.40;99.90;;;;;;5053355;28;20205;-70
2021/10/04 12:16:19;;;;;;;1.00;1.00;;;16.50;99.90;;;;;;5053126;28;20333;-70
2021/10/04 12:18:49;;;;;;;1.33;1.23;;;16.40;99.90;;;;;;5053294;28;20199;-70
2021/10/04 12:21:19;;;;;;;1.55;1.45;;;16.40;99.90;;;;;;5052918;28;20681;-70
2021/10/04 12:23:57;;;;;;;2.55;1.73;;;16.40;99.90;;;;;;5053301;28;20209;-70
2021/10/04 12:26:24;;;;;;;1.40;1.30;;;16.40;99.90;;;;;;5052971;28;20241;-70
2021/10/04 12:28:51;;;;;;;1.70;1.40;;;16.30;99.90;;;;;;5053226;28;20230;-70
2021/10/04 12:31:31;;;;;;;1.60;1.50;;;16.40;99.90;;;;;;5052901;28;20687;-70
2021/10/04 12:33:59;;;;;;;1.58;1.48;;;16.40;99.90;;;;;;5053213;28;20209;-70
2021/10/04 12:36:26;;;;;;;1.67;1.58;;;16.50;99.90;;;;;;5053292;28;20562;-71
2021/10/04 12:38:56;;;;;;;1.23;1.13;;;16.60;99.90;;;;;;5053324;28;20204;-71
2021/10/04 12:41:37;;;;;;;2.03;1.60;;;16.40;99.90;;;;;;5053052;28;20210;-70
2021/10/04 12:44:10;;;;;;;1.40;1.30;;;16.30;99.90;;;;;;5052830;28;20211;-70
2021/10/04 12:46:36;;;;;;;1.17;1.10;;;16.20;99.90;;;;;;5053048;28;20321;-70
2021/10/04 12:49:17;;;;;;;1.77;1.30;;;15.90;99.90;;;;;;5053161;28;20235;-70
2021/10/04 12:51:46;;;;;;;0.90;0.90;;;15.90;99.90;;;;;;5052716;28;20739;-71
2021/10/04 12:54:13;;;;;;;0.85;0.85;;;16.00;99.90;;;;;;5052645;28;20214;-70
2021/10/04 12:56:45;;;;;;;1.83;1.13;;;16.10;99.90;;;;;;5052939;28;20240;-70